createdAt,value
2022-10-19T00:00:45.422Z,1.30
2022-10-19T00:03:12.842Z,2.95
2022-10-19T00:05:41.784Z,3.17
2022-10-19T00:08:09.149Z,1.83
2022-10-19T00:10:36.686Z,2.38
2022-10-19T00:13:04.050Z,2.55
2022-10-19T00:15:31.428Z,2.97
2022-10-19T00:17:58.793Z,1.15
2022-10-19T00:20:26.134Z,1.10
2022-10-19T00:22:54.832Z,3.00
2022-10-19T00:25:22.223Z,2.75
2022-10-19T00:27:49.989Z,2.00
2022-10-19T00:30:17.441Z,3.47
2022-10-19T00:32:44.826Z,2.92
2022-10-19T00:35:12.203Z,1.25
2022-10-19T00:37:39.574Z,1.27
2022-10-19T00:40:09.404Z,1.92
2022-10-19T00:42:36.732Z,2.75
2022-10-19T00:45:07.020Z,1.50
2022-10-19T00:47:34.987Z,1.95
2022-10-19T00:50:02.374Z,2.20
2022-10-19T00:52:29.831Z,2.10
2022-10-19T00:54:59.115Z,1.30
2022-10-19T00:57:29.238Z,2.83
2022-10-19T00:59:56.727Z,2.58
2022-10-19T01:02:24.102Z,1.38
2022-10-19T01:04:52.798Z,2.10
2022-10-19T01:07:20.737Z,3.80
2022-10-19T01:09:48.122Z,2.35
2022-10-19T01:12:22.708Z,1.48
2022-10-19T01:14:59.048Z,1.92
2022-10-19T01:17:32.170Z,2.20
2022-10-19T01:20:15.827Z,2.65
2022-10-19T01:22:49.824Z,2.17
2022-10-19T01:25:22.923Z,0.68
2022-10-19T01:28:04.159Z,1.60
2022-10-19T01:30:45.550Z,0.75
2022-10-19T01:33:17.705Z,2.78
2022-10-19T01:35:46.576Z,1.70
2022-10-19T01:38:19.892Z,3.00
2022-10-19T01:40:52.649Z,2.53
2022-10-19T01:43:23.531Z,0.85
2022-10-19T01:45:55.071Z,2.67
2022-10-19T01:48:24.100Z,1.27
2022-10-19T01:50:53.498Z,1.60
2022-10-19T01:53:21.567Z,1.10
2022-10-19T01:55:51.018Z,2.35
2022-10-19T01:58:19.706Z,1.85
2022-10-19T02:00:47.910Z,2.38
2022-10-19T02:03:16.935Z,1.08
2022-10-19T02:05:45.518Z,0.82
2022-10-19T02:08:14.706Z,2.35
2022-10-19T02:10:43.755Z,1.73
2022-10-19T02:13:12.165Z,2.97
2022-10-19T02:15:41.286Z,2.75
2022-10-19T02:18:09.232Z,0.88
2022-10-19T02:20:38.240Z,2.17
2022-10-19T02:23:06.094Z,1.80
2022-10-19T02:25:33.627Z,1.95
2022-10-19T02:28:01.781Z,1.02
2022-10-19T02:30:29.430Z,4.32
2022-10-19T02:32:56.882Z,3.85
2022-10-19T02:35:24.276Z,2.97
2022-10-19T02:37:52.999Z,2.60
2022-10-19T02:40:20.407Z,1.67
2022-10-19T02:42:49.493Z,1.77
2022-10-19T02:45:20.076Z,2.45
2022-10-19T02:47:50.417Z,1.58
2022-10-19T02:50:18.307Z,1.25
2022-10-19T02:52:45.754Z,2.10
2022-10-19T02:55:14.575Z,1.75
2022-10-19T02:57:41.989Z,5.93
2022-10-19T03:00:09.748Z,2.85
2022-10-19T03:02:37.150Z,2.63
2022-10-19T03:05:04.800Z,1.65
2022-10-19T03:07:32.605Z,3.60
2022-10-19T03:10:00.318Z,1.08
2022-10-19T03:12:29.046Z,2.90
2022-10-19T03:14:56.454Z,2.00
2022-10-19T03:17:23.844Z,1.55
2022-10-19T03:19:51.221Z,2.13
2022-10-19T03:22:18.636Z,1.45
2022-10-19T03:24:45.994Z,3.05
2022-10-19T03:27:13.423Z,2.38
2022-10-19T03:29:42.161Z,1.00
2022-10-19T03:32:09.599Z,1.02
2022-10-19T03:34:37.024Z,2.95
2022-10-19T03:37:04.447Z,1.05
2022-10-19T03:39:31.827Z,1.50
2022-10-19T03:41:59.231Z,0.95
2022-10-19T03:44:26.693Z,1.17
2022-10-19T03:46:55.437Z,5.93
2022-10-19T03:49:22.933Z,1.80
2022-10-19T03:51:50.302Z,3.08
2022-10-19T03:54:18.299Z,2.17
2022-10-19T03:56:45.829Z,3.85
2022-10-19T03:59:14.013Z,2.70
2022-10-19T04:01:42.775Z,2.33
2022-10-19T04:04:12.903Z,3.05
2022-10-19T04:06:41.659Z,2.17
2022-10-19T04:09:09.468Z,1.58
2022-10-19T04:11:37.364Z,2.55
2022-10-19T04:14:04.966Z,4.78
2022-10-19T04:16:33.426Z,4.47
2022-10-19T04:19:01.166Z,1.90
2022-10-19T04:21:31.025Z,4.13
2022-10-19T04:23:59.505Z,3.55
2022-10-19T04:26:27.061Z,2.65
2022-10-19T04:28:54.547Z,4.63
2022-10-19T04:31:21.990Z,4.13
2022-10-19T04:33:49.376Z,1.38
2022-10-19T04:36:16.831Z,2.80
2022-10-19T04:38:45.578Z,5.28
2022-10-19T04:41:13.963Z,5.70
2022-10-19T04:43:41.677Z,4.43
2022-10-19T04:46:09.988Z,4.20
2022-10-19T04:48:38.303Z,2.67
2022-10-19T04:51:05.741Z,5.05
2022-10-19T04:53:33.388Z,1.80
2022-10-19T04:56:05.125Z,4.32
2022-10-19T04:58:32.530Z,3.25
2022-10-19T05:01:00.089Z,3.75
2022-10-19T05:03:27.616Z,2.85
2022-10-19T05:05:54.987Z,4.47
2022-10-19T05:08:22.356Z,2.78
2022-10-19T05:10:49.720Z,2.83
2022-10-19T05:13:18.473Z,6.47
2022-10-19T05:15:55.702Z,4.13
2022-10-19T05:18:23.085Z,6.03
2022-10-19T05:20:50.456Z,4.82
2022-10-19T05:23:17.845Z,3.10
2022-10-19T05:25:45.214Z,6.47
2022-10-19T05:28:12.548Z,5.70
2022-10-19T05:30:43.352Z,5.07
2022-10-19T05:33:12.966Z,4.82
2022-10-19T05:35:40.328Z,3.78
2022-10-19T05:38:07.698Z,7.90
2022-10-19T05:40:35.057Z,2.78
2022-10-19T05:43:02.416Z,2.63
2022-10-19T05:45:29.812Z,4.93
2022-10-19T05:47:59.835Z,1.27
2022-10-19T05:50:27.188Z,2.10
2022-10-19T05:52:54.569Z,4.07
2022-10-19T05:55:21.997Z,5.80
2022-10-19T05:57:49.336Z,7.07
2022-10-19T06:00:16.901Z,5.47
2022-10-19T06:02:44.274Z,6.70
2022-10-19T06:05:12.969Z,4.40
2022-10-19T06:07:40.350Z,4.60
2022-10-19T06:10:09.912Z,2.70
2022-10-19T06:12:37.269Z,3.55
2022-10-19T06:15:05.086Z,5.65
2022-10-19T06:17:32.724Z,4.03
2022-10-19T06:20:00.248Z,3.17
2022-10-19T06:22:28.991Z,2.30
2022-10-19T06:24:56.395Z,6.40
2022-10-19T06:27:23.878Z,3.75
2022-10-19T06:29:51.309Z,3.75
2022-10-19T06:32:18.773Z,3.33
2022-10-19T06:34:46.143Z,2.92
2022-10-19T06:37:13.520Z,3.38
2022-10-19T06:39:42.268Z,6.93
2022-10-19T06:42:10.531Z,7.47
2022-10-19T06:44:37.927Z,4.47
2022-10-19T06:47:05.337Z,5.93
2022-10-19T06:49:35.762Z,8.20
2022-10-19T06:52:03.151Z,4.47
2022-10-19T06:54:30.528Z,4.30
2022-10-19T06:56:59.292Z,8.45
2022-10-19T06:59:26.681Z,4.72
2022-10-19T07:01:54.072Z,5.18
2022-10-19T07:04:21.451Z,4.72
2022-10-19T07:06:48.821Z,3.95
2022-10-19T07:09:16.209Z,3.25
2022-10-19T07:11:46.086Z,5.60
2022-10-19T07:14:15.353Z,6.68
2022-10-19T07:16:42.760Z,7.00
2022-10-19T07:19:10.261Z,6.88
2022-10-19T07:21:41.569Z,3.75
2022-10-19T07:24:09.192Z,7.43
2022-10-19T07:26:36.708Z,7.82
2022-10-19T07:29:04.274Z,8.50
2022-10-19T07:31:33.306Z,9.25
2022-10-19T07:34:01.670Z,5.38
2022-10-19T07:36:30.420Z,5.50
2022-10-19T07:38:57.883Z,4.75
2022-10-19T07:41:25.993Z,7.10
2022-10-19T07:43:53.394Z,7.75
2022-10-19T07:46:21.916Z,5.37
2022-10-19T07:48:50.790Z,5.82
2022-10-19T07:51:18.774Z,6.07
2022-10-19T07:53:46.420Z,6.40
2022-10-19T07:56:14.483Z,7.07
2022-10-19T07:58:42.058Z,6.53
2022-10-19T08:01:10.515Z,6.43
2022-10-19T08:06:27.263Z,5.47
2022-10-19T08:08:55.120Z,4.90
2022-10-19T08:11:23.953Z,8.20
2022-10-19T08:13:51.394Z,6.50
2022-10-19T08:16:22.261Z,5.30
2022-10-19T08:18:49.863Z,6.47
2022-10-19T08:21:17.430Z,5.45
2022-10-19T08:23:46.151Z,7.55
2022-10-19T08:26:13.537Z,6.45
2022-10-19T08:28:40.944Z,6.30
2022-10-19T08:31:12.126Z,4.82
2022-10-19T08:33:39.519Z,5.15
2022-10-19T08:36:07.235Z,6.70
2022-10-19T08:38:35.709Z,6.30
2022-10-19T08:41:08.525Z,6.18
2022-10-19T08:43:39.427Z,6.55
2022-10-19T08:46:12.686Z,7.10
2022-10-19T08:48:42.941Z,4.93
2022-10-19T08:51:12.468Z,5.45
2022-10-19T08:53:44.700Z,7.35
2022-10-19T08:56:38.818Z,8.43
2022-10-19T08:59:09.986Z,7.85
2022-10-19T09:01:40.347Z,11.00
2022-10-19T09:04:10.859Z,6.78
2022-10-19T09:06:40.320Z,6.47
2022-10-19T09:09:07.894Z,7.50
2022-10-19T09:11:39.770Z,8.88
2022-10-19T09:14:09.089Z,9.10
2022-10-19T09:16:36.461Z,5.65
2022-10-19T09:19:04.203Z,5.07
2022-10-19T09:21:46.091Z,5.35
2022-10-19T09:24:23.177Z,6.88
2022-10-19T09:26:53.493Z,5.50
2022-10-19T09:29:25.428Z,6.78
2022-10-19T09:31:54.416Z,5.80
2022-10-19T09:34:23.484Z,6.43
2022-10-19T09:36:53.231Z,7.13
2022-10-19T09:39:21.909Z,7.07
2022-10-19T09:41:55.243Z,7.63
2022-10-19T09:44:23.461Z,8.02
2022-10-19T09:46:53.152Z,6.30
2022-10-19T09:49:20.869Z,8.60
2022-10-19T09:51:51.686Z,7.05
2022-10-19T09:54:27.346Z,7.00
2022-10-19T09:56:57.243Z,7.25
2022-10-19T09:59:29.200Z,7.68
2022-10-19T10:02:16.360Z,6.38
2022-10-19T10:04:46.798Z,7.13
2022-10-19T10:07:16.256Z,7.35
2022-10-19T10:09:44.107Z,6.75
2022-10-19T10:12:14.409Z,4.97
2022-10-19T10:14:41.938Z,5.70
2022-10-19T10:17:13.978Z,6.60
2022-10-19T10:19:50.313Z,5.03
2022-10-19T10:22:25.467Z,7.53
2022-10-19T10:24:53.467Z,6.60
2022-10-19T10:27:31.764Z,7.63
2022-10-19T10:29:59.429Z,7.57
2022-10-19T10:32:28.448Z,5.40
2022-10-19T10:35:01.663Z,6.93
2022-10-19T10:37:30.683Z,5.20
2022-10-19T10:40:02.011Z,7.30
2022-10-19T10:42:36.318Z,7.03
2022-10-19T10:45:04.390Z,5.97
2022-10-19T10:47:32.064Z,5.97
2022-10-19T10:50:01.130Z,7.47
2022-10-19T10:52:30.605Z,6.18
2022-10-19T10:54:59.770Z,7.28
2022-10-19T10:57:29.211Z,5.38
2022-10-19T11:00:02.164Z,9.98
2022-10-19T11:02:32.951Z,5.47
2022-10-19T11:05:02.721Z,7.65
2022-10-19T11:07:31.173Z,4.80
2022-10-19T11:09:59.569Z,6.05
2022-10-19T11:12:35.122Z,7.38
2022-10-19T11:15:07.460Z,6.78
2022-10-19T11:17:37.506Z,7.13
2022-10-19T11:20:06.736Z,8.25
2022-10-19T11:22:36.729Z,7.43
2022-10-19T11:25:11.058Z,7.40
2022-10-19T11:27:44.492Z,7.22
2022-10-19T11:30:14.882Z,7.95
2022-10-19T11:32:50.810Z,7.38
2022-10-19T11:35:26.297Z,6.85
2022-10-19T11:38:18.408Z,6.78
2022-10-19T11:41:13.146Z,7.22
2022-10-19T11:43:39.488Z,8.40
2022-10-19T11:46:12.231Z,6.47
2022-10-19T11:48:54.174Z,5.38
2022-10-19T11:51:27.047Z,6.40
2022-10-19T11:53:59.317Z,5.78
2022-10-19T11:56:39.286Z,5.00
2022-10-19T11:59:21.879Z,7.80
2022-10-19T12:01:55.667Z,5.97
2022-10-19T12:04:39.640Z,5.03
2022-10-19T12:07:14.642Z,6.28
2022-10-19T12:09:47.420Z,8.40
2022-10-19T12:12:26.107Z,5.18
2022-10-19T12:14:55.812Z,7.20
2022-10-19T12:17:26.256Z,5.05
2022-10-19T12:19:55.496Z,5.43
2022-10-19T12:22:24.712Z,5.43
2022-10-19T12:24:55.319Z,6.03
2022-10-19T12:27:25.749Z,6.82
2022-10-19T12:29:54.101Z,7.07
2022-10-19T12:32:22.761Z,5.03
2022-10-19T12:34:57.665Z,6.68
2022-10-19T12:37:26.826Z,4.73
2022-10-19T12:39:58.821Z,4.67
2022-10-19T12:42:30.190Z,6.07
2022-10-19T12:45:13.684Z,7.25
2022-10-19T12:47:41.066Z,5.10
2022-10-19T12:50:09.983Z,6.93
2022-10-19T12:52:42.715Z,6.95
2022-10-19T12:55:23.855Z,6.28
2022-10-19T12:57:57.578Z,6.13
2022-10-19T13:00:26.155Z,5.78
2022-10-19T13:02:57.850Z,6.43
2022-10-19T13:05:28.471Z,6.50
2022-10-19T13:07:56.113Z,5.25
2022-10-19T13:10:24.732Z,6.32
2022-10-19T13:12:52.348Z,6.07
2022-10-19T13:15:38.337Z,6.45
2022-10-19T13:18:06.633Z,6.53
2022-10-19T13:20:52.289Z,6.68
2022-10-19T13:23:37.375Z,6.28
2022-10-19T13:26:19.685Z,8.05
2022-10-19T13:28:53.921Z,7.90
2022-10-19T13:31:25.659Z,7.80
2022-10-19T13:33:53.707Z,6.07
2022-10-19T13:36:23.037Z,7.60
2022-10-19T13:39:17.242Z,6.13
2022-10-19T13:41:48.380Z,8.05
2022-10-19T13:44:19.921Z,6.75
2022-10-19T13:46:52.097Z,6.63
2022-10-19T13:49:28.973Z,5.00
2022-10-19T13:52:10.220Z,7.78
2022-10-19T13:54:47.326Z,7.47
2022-10-19T13:57:19.922Z,9.38
2022-10-19T14:00:01.514Z,6.70
2022-10-19T14:02:47.417Z,6.22
2022-10-19T14:05:32.197Z,6.32
2022-10-19T14:08:07.669Z,6.38
2022-10-19T14:10:56.174Z,5.70
2022-10-19T14:13:23.041Z,8.65
2022-10-19T14:15:53.904Z,5.63
2022-10-19T14:18:23.908Z,8.32
2022-10-19T14:20:57.060Z,6.97
2022-10-19T14:23:26.836Z,6.72
2022-10-19T14:25:55.191Z,7.50
2022-10-19T14:28:22.793Z,6.57
2022-10-19T14:30:55.517Z,7.95
2022-10-19T14:33:25.489Z,7.47
2022-10-19T14:35:53.304Z,7.88
2022-10-19T14:38:22.702Z,8.20
2022-10-19T14:40:51.769Z,10.60
2022-10-19T14:43:20.995Z,10.50
2022-10-19T14:46:03.261Z,8.60
2022-10-19T14:48:30.655Z,9.33
2022-10-19T14:50:58.593Z,6.45
2022-10-19T14:53:33.594Z,8.60
2022-10-19T14:56:05.737Z,6.55
2022-10-19T14:58:35.268Z,9.43
2022-10-19T15:01:02.738Z,8.15
2022-10-19T15:03:30.983Z,6.63
2022-10-19T15:06:00.976Z,9.82
2022-10-19T15:08:34.568Z,6.68
2022-10-19T15:11:03.478Z,7.45
2022-10-19T15:13:33.426Z,5.80
2022-10-19T15:16:01.105Z,8.50
2022-10-19T15:18:48.808Z,8.23
2022-10-19T15:21:19.529Z,9.07
2022-10-19T15:23:47.757Z,8.70
2022-10-19T15:26:18.813Z,7.32
2022-10-19T15:28:46.529Z,9.15
2022-10-19T15:31:15.547Z,8.23
2022-10-19T15:33:45.820Z,8.02
2022-10-19T15:36:17.129Z,10.07
2022-10-19T15:38:45.567Z,8.15
2022-10-19T15:41:16.412Z,7.68
2022-10-19T15:43:49.316Z,8.07
2022-10-19T15:46:28.303Z,3.95
2022-10-19T15:48:56.507Z,7.75
2022-10-19T15:51:34.480Z,8.40
2022-10-19T15:54:02.605Z,6.55
2022-10-19T15:56:30.921Z,10.93
2022-10-19T15:59:00.588Z,6.65
2022-10-19T16:03:55.540Z,7.95
2022-10-19T16:06:24.342Z,9.52
2022-10-19T16:08:53.846Z,10.33
2022-10-19T16:11:22.849Z,6.32
2022-10-19T16:13:50.241Z,7.60
2022-10-19T16:16:21.770Z,10.20
2022-10-19T16:18:49.155Z,6.72
2022-10-19T16:21:16.570Z,6.22
2022-10-19T16:23:44.003Z,8.70
2022-10-19T16:26:12.860Z,10.38
2022-10-19T16:28:40.225Z,10.00
2022-10-19T16:31:07.728Z,8.95
2022-10-19T16:33:36.429Z,11.23
2022-10-19T16:36:07.879Z,17.20
2022-10-19T16:38:35.757Z,8.18
2022-10-19T16:41:03.299Z,9.75
2022-10-19T16:43:30.821Z,8.98
2022-10-19T16:45:58.225Z,10.73
2022-10-19T16:48:25.923Z,8.20
2022-10-19T16:51:11.359Z,7.78
2022-10-19T16:53:40.076Z,11.00
2022-10-19T16:56:08.707Z,8.45
2022-10-19T16:58:37.017Z,7.07
2022-10-19T17:01:07.462Z,10.45
2022-10-19T17:03:34.865Z,12.45
2022-10-19T17:06:02.772Z,7.78
2022-10-19T17:08:37.103Z,5.43
2022-10-19T17:11:20.565Z,11.68
2022-10-19T17:13:49.249Z,9.30
2022-10-19T17:16:17.183Z,11.10
2022-10-19T17:18:44.864Z,8.40
2022-10-19T17:21:13.211Z,7.93
2022-10-19T17:23:40.798Z,8.50
2022-10-19T17:26:09.181Z,8.57
2022-10-19T17:28:38.364Z,11.88
2022-10-19T17:31:06.460Z,11.43
2022-10-19T17:33:33.840Z,9.00
2022-10-19T17:36:08.455Z,10.13
2022-10-19T17:38:36.192Z,10.68
2022-10-19T17:41:04.640Z,11.30
2022-10-19T17:43:32.018Z,10.25
2022-10-19T17:46:01.411Z,8.82
2022-10-19T17:48:28.773Z,12.38
2022-10-19T17:51:00.082Z,12.05
2022-10-19T17:53:27.493Z,13.30
2022-10-19T17:55:54.873Z,12.93
2022-10-19T17:58:22.654Z,14.73
2022-10-19T18:00:53.874Z,10.30
2022-10-19T18:03:22.679Z,11.68
2022-10-19T18:05:56.712Z,9.90
2022-10-19T18:08:24.210Z,11.90
2022-10-19T18:10:55.058Z,12.80
2022-10-19T18:13:22.418Z,11.75
2022-10-19T18:15:49.821Z,8.88
2022-10-19T18:18:18.568Z,9.23
2022-10-19T18:20:47.300Z,8.38
2022-10-19T18:23:14.637Z,9.95
2022-10-19T18:25:53.867Z,9.30
2022-10-19T18:28:21.902Z,12.20
2022-10-19T18:30:49.284Z,9.00
2022-10-19T18:33:16.668Z,9.25
2022-10-19T18:35:44.107Z,9.90
2022-10-19T18:38:12.807Z,7.65
2022-10-19T18:40:40.165Z,8.90
2022-10-19T18:43:07.561Z,6.10
2022-10-19T18:45:34.960Z,9.32
2022-10-19T18:48:02.335Z,5.85
2022-10-19T18:50:30.174Z,8.25
2022-10-19T18:52:57.617Z,8.20
2022-10-19T18:55:26.330Z,7.68
2022-10-19T18:57:53.712Z,10.18
2022-10-19T19:00:21.130Z,7.55
2022-10-19T19:02:53.637Z,8.95
2022-10-19T19:05:21.444Z,8.82
2022-10-19T19:07:49.046Z,11.02
2022-10-19T19:10:16.500Z,10.15
2022-10-19T19:12:45.464Z,10.25
2022-10-19T19:15:12.950Z,8.65
2022-10-19T19:17:40.452Z,9.02
2022-10-19T19:20:08.075Z,9.63
2022-10-19T19:22:35.660Z,8.60
2022-10-19T19:25:03.412Z,10.32
2022-10-19T19:27:31.941Z,8.40
2022-10-19T19:30:03.684Z,14.45
2022-10-19T19:32:31.252Z,9.40
2022-10-19T19:34:58.619Z,10.35
2022-10-19T19:37:25.979Z,12.68
2022-10-19T19:39:53.356Z,8.88
2022-10-19T19:42:22.338Z,9.07
2022-10-19T19:44:52.998Z,10.40
2022-10-19T19:47:21.729Z,9.38
2022-10-19T19:49:49.097Z,8.90
2022-10-19T19:52:16.505Z,10.57
2022-10-19T19:54:43.880Z,11.45
2022-10-19T19:57:11.341Z,8.98
2022-10-19T19:59:38.758Z,8.00
2022-10-19T20:02:06.228Z,11.75
2022-10-19T20:04:35.161Z,9.38
2022-10-19T20:07:02.524Z,11.30
2022-10-19T20:09:30.173Z,10.05
2022-10-19T20:11:57.621Z,9.88
2022-10-19T20:14:25.075Z,9.43
2022-10-19T20:16:52.463Z,9.55
2022-10-19T20:19:19.854Z,10.50
2022-10-19T20:21:48.567Z,8.23
2022-10-19T20:24:16.083Z,8.77
2022-10-19T20:26:43.445Z,7.82
2022-10-19T20:29:10.792Z,7.70
2022-10-19T20:31:40.534Z,7.75
2022-10-19T20:34:08.709Z,8.85
2022-10-19T20:36:36.397Z,9.85
2022-10-19T20:39:05.237Z,9.95
2022-10-19T20:41:32.607Z,8.53
2022-10-19T20:43:59.963Z,7.78
2022-10-19T20:46:28.401Z,6.43
2022-10-19T20:48:56.330Z,8.60
2022-10-19T20:51:27.623Z,9.77
2022-10-19T20:53:59.229Z,8.95
2022-10-19T20:56:29.286Z,7.60
2022-10-19T20:58:56.942Z,8.40
2022-10-19T21:01:24.407Z,10.05
2022-10-19T21:03:53.392Z,7.57
2022-10-19T21:06:21.785Z,12.05
2022-10-19T21:08:49.335Z,8.48
2022-10-19T21:11:17.771Z,13.10
2022-10-19T21:13:46.946Z,7.90
2022-10-19T21:16:15.411Z,8.77
2022-10-19T21:18:43.178Z,9.45
2022-10-19T21:21:11.432Z,8.32
2022-10-19T21:23:38.817Z,8.40
2022-10-19T21:26:06.287Z,8.25
2022-10-19T21:28:33.710Z,10.40
2022-10-19T21:31:04.844Z,8.70
2022-10-19T21:33:32.415Z,6.03
2022-10-19T21:36:01.447Z,10.40
2022-10-19T21:38:28.853Z,15.88
2022-10-19T21:40:57.760Z,8.00
2022-10-19T21:43:25.175Z,10.50
2022-10-19T21:45:52.589Z,9.38
2022-10-19T21:48:21.524Z,7.35
2022-10-19T21:50:49.341Z,7.43
2022-10-19T21:53:18.268Z,8.02
2022-10-19T21:55:45.808Z,8.35
2022-10-19T21:58:13.626Z,9.10
2022-10-19T22:00:41.042Z,7.40
2022-10-19T22:03:08.507Z,7.50
2022-10-19T22:05:37.421Z,7.95
2022-10-19T22:08:04.896Z,8.17
2022-10-19T22:10:32.308Z,6.68
2022-10-19T22:12:59.657Z,9.23
2022-10-19T22:15:27.093Z,5.75
2022-10-19T22:17:54.474Z,6.15
2022-10-19T22:20:21.880Z,11.65
2022-10-19T22:22:52.796Z,10.57
2022-10-19T22:25:22.289Z,9.07
2022-10-19T22:27:49.667Z,10.13
2022-10-19T22:30:17.092Z,9.88
2022-10-19T22:32:44.467Z,11.00
2022-10-19T22:35:11.811Z,6.05
2022-10-19T22:37:39.168Z,9.90
2022-10-19T22:40:08.478Z,9.60
2022-10-19T22:42:36.129Z,10.93
2022-10-19T22:45:03.849Z,7.18
2022-10-19T22:47:31.247Z,8.90
2022-10-19T22:49:58.614Z,10.50
2022-10-19T22:52:25.983Z,8.93
2022-10-19T22:54:53.417Z,6.70
2022-10-19T22:57:22.149Z,7.80
2022-10-19T22:59:49.537Z,8.23
2022-10-19T23:02:16.976Z,10.30
2022-10-19T23:04:44.538Z,7.45
2022-10-19T23:09:44.377Z,8.70
2022-10-19T23:12:11.833Z,6.45
2022-10-19T23:14:40.554Z,10.60
2022-10-19T23:17:07.937Z,9.35
2022-10-19T23:19:35.324Z,9.27
2022-10-19T23:22:02.667Z,9.43
2022-10-19T23:24:30.025Z,12.90
2022-10-19T23:26:57.435Z,10.65
2022-10-19T23:29:24.951Z,10.75
2022-10-19T23:31:53.668Z,9.10
2022-10-19T23:34:21.027Z,9.63
2022-10-19T23:36:48.448Z,10.68
2022-10-19T23:39:15.850Z,9.45
2022-10-19T23:41:43.272Z,9.00
2022-10-19T23:44:10.705Z,10.82
2022-10-19T23:46:38.104Z,8.93
2022-10-19T23:49:06.965Z,8.93
2022-10-19T23:51:34.316Z,10.00
2022-10-19T23:54:01.711Z,8.70
2022-10-19T23:56:30.159Z,9.57
2022-10-19T23:58:57.585Z,7.63
